TimeEDT,TemperatureF,Dew PointF,Humidity,Sea Level PressureIn,VisibilityMPH,Wind Direction,Wind SpeedMPH,Gust SpeedMPH,PrecipitationIn,Events,Conditions,WindDirDegrees,DateUTC
12:15 AM,50.5,48.2,92,29.93,10.0,ENE,8.1,-,N/A,,Scattered Clouds,60,2013-05-07 04:15:00
12:35 AM,50.2,48.2,93,29.92,10.0,ENE,5.8,-,N/A,,Scattered Clouds,60,2013-05-07 04:35:00
12:55 AM,50.0,48.2,94,29.92,10.0,ENE,5.8,-,N/A,,Scattered Clouds,70,2013-05-07 04:55:00
1:15 AM,50.2,48.2,93,29.92,10.0,ENE,4.6,-,N/A,,Mostly Cloudy,70,2013-05-07 05:15:00
1:35 AM,50.2,48.4,94,29.92,10.0,Calm,Calm,-,N/A,,Overcast,0,2013-05-07 05:35:00
1:55 AM,50.7,48.6,92,29.91,10.0,ENE,4.6,-,N/A,,Overcast,70,2013-05-07 05:55:00
2:15 AM,50.9,48.2,90,29.91,10.0,Calm,Calm,-,N/A,,Scattered Clouds,0,2013-05-07 06:15:00
2:35 AM,51.1,48.0,89,29.91,10.0,Calm,Calm,-,N/A,,Clear,0,2013-05-07 06:35:00
2:55 AM,50.5,47.8,90,29.89,10.0,NE,3.5,-,N/A,,Clear,50,2013-05-07 06:55:00
3:15 AM,50.0,48.4,94,29.89,10.0,NE,5.8,-,N/A,,Scattered Clouds,50,2013-05-07 07:15:00
3:35 AM,50.2,48.4,94,29.90,10.0,East,4.6,-,N/A,,Scattered Clouds,90,2013-05-07 07:35:00
3:55 AM,50.9,48.4,91,29.89,10.0,Calm,Calm,-,N/A,,Mostly Cloudy,0,2013-05-07 07:55:00
4:15 AM,50.5,48.2,92,29.89,10.0,Calm,Calm,-,N/A,,Overcast,0,2013-05-07 08:15:00
4:35 AM,50.9,48.6,92,29.89,10.0,Calm,Calm,-,N/A,Rain,Light Rain,0,2013-05-07 08:35:00
4:55 AM,48.6,48.0,98,29.90,4.0,NE,5.8,-,N/A,,Overcast,40,2013-05-07 08:55:00
5:15 AM,50.9,49.5,95,29.89,10.0,Calm,Calm,-,N/A,Rain,Light Rain,0,2013-05-07 09:15:00
5:35 AM,49.8,49.3,98,29.89,2.0,Calm,Calm,-,0.01,,Overcast,0,2013-05-07 09:35:00
5:55 AM,49.6,49.3,99,29.89,10.0,Calm,Calm,-,0.01,,Overcast,0,2013-05-07 09:55:00
6:35 AM,49.3,49.1,99,29.91,0.8,Calm,Calm,-,N/A,,Overcast,0,2013-05-07 10:35:00
6:55 AM,48.9,48.7,99,29.91,0.5,ENE,3.5,-,N/A,Fog,Fog,60,2013-05-07 10:55:00
7:15 AM,49.6,49.1,98,29.91,2.0,NE,3.5,-,N/A,,Overcast,50,2013-05-07 11:15:00
7:35 AM,50.2,49.5,97,29.92,10.0,ENE,3.5,-,N/A,,Overcast,60,2013-05-07 11:35:00
7:55 AM,50.4,49.6,97,29.92,10.0,Calm,Calm,-,N/A,,Mostly Cloudy,0,2013-05-07 11:55:00
8:15 AM,50.5,50.0,98,29.92,10.0,Calm,Calm,-,N/A,,Mostly Cloudy,0,2013-05-07 12:15:00
8:35 AM,50.4,50.2,99,29.92,1.0,Calm,Calm,-,N/A,,Mostly Cloudy,0,2013-05-07 12:35:00
8:55 AM,49.8,49.5,99,29.93,2.0,Calm,Calm,-,N/A,,Overcast,0,2013-05-07 12:55:00
9:15 AM,51.4,50.2,95,29.94,10.0,Calm,Calm,-,N/A,,Overcast,0,2013-05-07 13:15:00
9:35 AM,51.3,50.5,97,29.94,10.0,Calm,Calm,-,N/A,,Overcast,0,2013-05-07 13:35:00
9:55 AM,51.1,50.7,99,29.95,10.0,Calm,Calm,-,N/A,,Overcast,0,2013-05-07 13:55:00
10:15 AM,51.4,50.5,97,29.95,10.0,Calm,Calm,-,N/A,,Overcast,0,2013-05-07 14:15:00
10:35 AM,51.8,50.7,96,29.95,10.0,Calm,Calm,-,N/A,,Overcast,0,2013-05-07 14:35:00
10:55 AM,51.8,50.5,95,29.95,10.0,Calm,Calm,-,N/A,,Overcast,0,2013-05-07 14:55:00
11:15 AM,51.4,50.9,98,29.95,7.0,Calm,Calm,-,N/A,,Overcast,0,2013-05-07 15:15:00
11:35 AM,52.2,50.9,95,29.95,10.0,Calm,Calm,-,N/A,,Overcast,0,2013-05-07 15:35:00
11:55 AM,52.3,50.9,95,29.96,10.0,Calm,Calm,-,N/A,,Overcast,0,2013-05-07 15:55:00
12:15 PM,53.6,51.1,91,29.95,10.0,Calm,Calm,-,N/A,,Overcast,0,2013-05-07 16:15:00
12:35 PM,53.6,50.5,89,29.95,10.0,West,4.6,-,N/A,,Overcast,280,2013-05-07 16:35:00
12:55 PM,53.4,50.9,91,29.95,10.0,NW,4.6,-,N/A,,Overcast,310,2013-05-07 16:55:00
1:15 PM,54.5,50.7,87,29.94,10.0,WNW,3.5,-,N/A,,Mostly Cloudy,290,2013-05-07 17:15:00
1:35 PM,55.0,51.8,89,29.93,10.0,West,5.8,-,N/A,,Mostly Cloudy,280,2013-05-07 17:35:00
1:55 PM,55.4,51.4,87,29.93,10.0,West,5.8,-,N/A,,Overcast,280,2013-05-07 17:55:00
2:15 PM,55.2,51.6,88,29.93,10.0,Calm,Calm,-,N/A,,Overcast,0,2013-05-07 18:15:00
2:35 PM,55.9,47.3,73,29.93,10.0,NNE,8.1,-,N/A,,Overcast,20,2013-05-07 18:35:00
2:55 PM,56.7,46.4,69,29.93,10.0,NNE,8.1,-,N/A,Thunderstorm,Overcast,20,2013-05-07 18:55:00
3:15 PM,56.7,46.0,68,29.93,10.0,NNE,9.2,-,N/A,,Overcast,30,2013-05-07 19:15:00
3:35 PM,56.1,45.7,68,29.92,10.0,NW,5.8,-,N/A,Thunderstorm,Overcast,320,2013-05-07 19:35:00
3:55 PM,55.6,44.6,67,29.92,10.0,NNW,13.8,-,N/A,,Overcast,330,2013-05-07 19:55:00
4:15 PM,54.7,45.0,70,29.92,10.0,NNW,9.2,-,N/A,Thunderstorm,Overcast,340,2013-05-07 20:15:00
4:35 PM,55.0,45.9,71,29.91,10.0,NW,4.6,-,N/A,Thunderstorm,Overcast,320,2013-05-07 20:35:00
4:55 PM,56.3,46.0,68,29.91,10.0,North,5.8,-,N/A,,Overcast,360,2013-05-07 20:55:00
5:15 PM,55.6,44.6,67,29.91,10.0,NNW,5.8,-,N/A,,Overcast,340,2013-05-07 21:15:00
5:35 PM,55.4,44.4,67,29.91,10.0,NNW,4.6,-,N/A,,Overcast,340,2013-05-07 21:35:00
5:55 PM,55.4,44.8,67,29.92,10.0,NW,3.5,-,N/A,,Overcast,320,2013-05-07 21:55:00
6:15 PM,55.6,45.1,68,29.92,10.0,Calm,Calm,-,N/A,,Overcast,0,2013-05-07 22:15:00
6:35 PM,55.4,45.1,68,29.92,10.0,NNW,5.8,-,N/A,,Overcast,330,2013-05-07 22:35:00
6:55 PM,55.2,45.0,68,29.92,10.0,NW,8.1,-,N/A,,Overcast,320,2013-05-07 22:55:00
7:15 PM,54.7,45.0,70,29.92,10.0,North,5.8,-,N/A,,Overcast,350,2013-05-07 23:15:00
7:35 PM,54.9,45.5,71,29.93,10.0,NNW,6.9,-,N/A,,Overcast,330,2013-05-07 23:35:00
7:55 PM,54.1,45.5,73,29.94,10.0,NNW,5.8,-,N/A,,Overcast,330,2013-05-07 23:55:00
8:15 PM,53.8,46.0,75,29.94,10.0,NNW,5.8,-,N/A,,Overcast,340,2013-05-08 00:15:00
8:35 PM,53.6,46.4,77,29.95,10.0,NW,3.5,-,N/A,,Overcast,320,2013-05-08 00:35:00
8:55 PM,52.9,46.4,79,29.94,10.0,NNW,3.5,-,N/A,,Overcast,340,2013-05-08 00:55:00
9:15 PM,52.7,46.6,80,29.95,10.0,Calm,Calm,-,N/A,,Overcast,0,2013-05-08 01:15:00
9:35 PM,52.2,46.6,81,29.95,10.0,Calm,Calm,-,N/A,,Overcast,0,2013-05-08 01:35:00
9:55 PM,51.8,46.8,83,29.94,10.0,NW,4.6,-,N/A,,Mostly Cloudy,320,2013-05-08 01:55:00
10:15 PM,51.6,47.1,85,29.94,10.0,NW,3.5,-,N/A,,Mostly Cloudy,320,2013-05-08 02:15:00
10:35 PM,50.9,48.0,90,29.95,10.0,WSW,3.5,-,N/A,,Mostly Cloudy,250,2013-05-08 02:35:00
10:55 PM,51.3,49.3,93,29.95,10.0,Calm,Calm,-,N/A,,Mostly Cloudy,0,2013-05-08 02:55:00
11:15 PM,50.4,49.1,95,29.96,10.0,Calm,Calm,-,N/A,,Overcast,0,2013-05-08 03:15:00
11:35 PM,50.4,49.5,97,29.96,10.0,Calm,Calm,-,N/A,,Mostly Cloudy,0,2013-05-08 03:35:00
11:55 PM,50.9,50.0,97,29.96,10.0,West,3.5,-,N/A,,Overcast,270,2013-05-08 03:55:00